sensor_id;sensor_type;location;lat;lon;timestamp;temperature;humidity
935;DHT22;454;53.254;10.400;2023-05-21T04:02:38;11.30;99.90
935;DHT22;454;53.254;10.400;2023-05-21T04:05:05;11.30;99.90
935;DHT22;454;53.254;10.400;2023-05-21T04:07:32;11.30;99.90
935;DHT22;454;53.254;10.400;2023-05-21T04:09:59;11.40;99.90
935;DHT22;454;53.254;10.400;2023-05-21T04:12:26;11.50;99.90
935;DHT22;454;53.254;10.400;2023-05-21T04:14:53;11.50;99.90
935;DHT22;454;53.254;10.400;2023-05-21T04:17:20;11.60;99.90
935;DHT22;454;53.254;10.400;2023-05-21T04:19:48;11.70;99.90
935;DHT22;454;53.254;10.400;2023-05-21T04:22:15;11.70;99.90
935;DHT22;454;53.254;10.400;2023-05-21T04:24:41;11.80;99.90
935;DHT22;454;53.254;10.400;2023-05-21T04:27:10;12.00;99.90
935;DHT22;454;53.254;10.400;2023-05-21T04:29:38;12.20;99.90
935;DHT22;454;53.254;10.400;2023-05-21T04:32:07;12.30;99.90
935;DHT22;454;53.254;10.400;2023-05-21T04:34:33;12.30;99.90
935;DHT22;454;53.254;10.400;2023-05-21T04:37:02;12.40;99.90
935;DHT22;454;53.254;10.400;2023-05-21T04:39:29;12.40;99.90
935;DHT22;454;53.254;10.400;2023-05-21T04:41:56;12.30;99.90
935;DHT22;454;53.254;10.400;2023-05-21T04:44:23;12.20;99.90
935;DHT22;454;53.254;10.400;2023-05-21T04:46:50;12.20;99.90
935;DHT22;454;53.254;10.400;2023-05-21T04:49:17;12.30;99.90
935;DHT22;454;53.254;10.400;2023-05-21T04:51:45;12.20;99.90
935;DHT22;454;53.254;10.400;2023-05-21T04:54:13;12.20;99.90
935;DHT22;454;53.254;10.400;2023-05-21T04:56:40;12.20;99.90
935;DHT22;454;53.254;10.400;2023-05-21T04:59:06;12.20;99.90
935;DHT22;454;53.254;10.400;2023-05-21T05:01:33;12.40;99.90
935;DHT22;454;53.254;10.400;2023-05-21T05:04:03;12.50;99.90
935;DHT22;454;53.254;10.400;2023-05-21T05:06:29;12.60;99.90
935;DHT22;454;53.254;10.400;2023-05-21T05:08:57;12.70;99.90
935;DHT22;454;53.254;10.400;2023-05-21T05:11:25;12.80;99.90
935;DHT22;454;53.254;10.400;2023-05-21T05:13:52;12.80;99.90
935;DHT22;454;53.254;10.400;2023-05-21T05:16:19;12.80;99.90
935;DHT22;454;53.254;10.400;2023-05-21T05:18:49;12.90;99.90
935;DHT22;454;53.254;10.400;2023-05-21T05:21:16;12.90;99.90
935;DHT22;454;53.254;10.400;2023-05-21T05:23:43;12.90;99.90
935;DHT22;454;53.254;10.400;2023-05-21T05:26:10;12.90;99.90
935;DHT22;454;53.254;10.400;2023-05-21T05:28:38;12.90;99.90
935;DHT22;454;53.254;10.400;2023-05-21T05:31:05;13.00;99.90
935;DHT22;454;53.254;10.400;2023-05-21T05:33:31;13.10;99.90
935;DHT22;454;53.254;10.400;2023-05-21T05:35:58;13.10;99.90
935;DHT22;454;53.254;10.400;2023-05-21T05:38:25;13.20;99.90
935;DHT22;454;53.254;10.400;2023-05-21T05:40:52;13.20;99.90
935;DHT22;454;53.254;10.400;2023-05-21T05:43:18;13.30;99.90
935;DHT22;454;53.254;10.400;2023-05-21T05:45:47;13.40;99.90
935;DHT22;454;53.254;10.400;2023-05-21T05:48:13;13.50;99.90
935;DHT22;454;53.254;10.400;2023-05-21T05:50:41;13.60;99.90
935;DHT22;454;53.254;10.400;2023-05-21T05:53:07;13.70;99.90
935;DHT22;454;53.254;10.400;2023-05-21T05:55:37;13.90;99.90
935;DHT22;454;53.254;10.400;2023-05-21T05:58:04;14.00;99.90
935;DHT22;454;53.254;10.400;2023-05-21T06:00:31;14.30;99.90
935;DHT22;454;53.254;10.400;2023-05-21T06:02:59;14.70;99.90
935;DHT22;454;53.254;10.400;2023-05-21T06:05:26;15.00;99.90
935;DHT22;454;53.254;10.400;2023-05-21T06:07:52;15.30;99.90
935;DHT22;454;53.254;10.400;2023-05-21T06:10:19;15.80;99.90
935;DHT22;454;53.254;10.400;2023-05-21T06:12:46;16.30;99.90
935;DHT22;454;53.254;10.400;2023-05-21T06:15:13;16.50;99.90
935;DHT22;454;53.254;10.400;2023-05-21T06:17:41;16.60;99.90
935;DHT22;454;53.254;10.400;2023-05-21T06:20:09;16.90;99.90
935;DHT22;454;53.254;10.400;2023-05-21T06:22:37;17.30;99.90
935;DHT22;454;53.254;10.400;2023-05-21T06:25:04;17.60;99.90
935;DHT22;454;53.254;10.400;2023-05-21T06:27:32;18.00;99.90
935;DHT22;454;53.254;10.400;2023-05-21T06:29:59;18.60;99.90
935;DHT22;454;53.254;10.400;2023-05-21T06:32:26;18.90;99.90
935;DHT22;454;53.254;10.400;2023-05-21T06:34:53;19.10;99.90
935;DHT22;454;53.254;10.400;2023-05-21T06:37:21;19.40;99.90
935;DHT22;454;53.254;10.400;2023-05-21T06:39:48;19.70;99.90
935;DHT22;454;53.254;10.400;2023-05-21T06:42:15;19.90;99.90
935;DHT22;454;53.254;10.400;2023-05-21T06:44:42;20.40;99.90
935;DHT22;454;53.254;10.400;2023-05-21T06:47:08;20.60;99.90
935;DHT22;454;53.254;10.400;2023-05-21T06:49:35;20.80;99.90
935;DHT22;454;53.254;10.400;2023-05-21T06:52:02;21.10;99.90
935;DHT22;454;53.254;10.400;2023-05-21T06:54:31;21.40;99.90
935;DHT22;454;53.254;10.400;2023-05-21T06:56:57;21.10;99.90
935;DHT22;454;53.254;10.400;2023-05-21T06:59:24;21.40;99.90
935;DHT22;454;53.254;10.400;2023-05-21T07:01:51;21.80;99.90
935;DHT22;454;53.254;10.400;2023-05-21T07:04:17;22.10;99.90
935;DHT22;454;53.254;10.400;2023-05-21T07:06:44;22.00;99.90
935;DHT22;454;53.254;10.400;2023-05-21T07:09:11;22.20;99.90
935;DHT22;454;53.254;10.400;2023-05-21T07:11:39;22.00;99.90
935;DHT22;454;53.254;10.400;2023-05-21T07:14:07;21.80;99.90
935;DHT22;454;53.254;10.400;2023-05-21T07:16:34;21.80;99.90
935;DHT22;454;53.254;10.400;2023-05-21T07:19:01;21.80;99.90
935;DHT22;454;53.254;10.400;2023-05-21T07:21:28;21.90;99.90
935;DHT22;454;53.254;10.400;2023-05-21T07:23:55;22.00;99.90
935;DHT22;454;53.254;10.400;2023-05-21T07:26:22;22.30;99.90
935;DHT22;454;53.254;10.400;2023-05-21T07:28:51;22.60;99.90
935;DHT22;454;53.254;10.400;2023-05-21T07:31:18;22.80;99.90
935;DHT22;454;53.254;10.400;2023-05-21T07:33:45;22.60;99.90
935;DHT22;454;53.254;10.400;2023-05-21T07:36:12;22.50;99.90
935;DHT22;454;53.254;10.400;2023-05-21T07:38:38;22.50;99.90
935;DHT22;454;53.254;10.400;2023-05-21T07:41:05;22.50;99.90
935;DHT22;454;53.254;10.400;2023-05-21T07:43:32;22.60;99.90
935;DHT22;454;53.254;10.400;2023-05-21T07:46:00;22.50;99.90
935;DHT22;454;53.254;10.400;2023-05-21T07:48:27;22.50;99.90
935;DHT22;454;53.254;10.400;2023-05-21T07:50:53;22.70;99.90
935;DHT22;454;53.254;10.400;2023-05-21T07:53:21;23.00;99.90
935;DHT22;454;53.254;10.400;2023-05-21T07:55:47;23.10;99.90
935;DHT22;454;53.254;10.400;2023-05-21T07:58:15;23.20;99.90
935;DHT22;454;53.254;10.400;2023-05-21T08:00:42;23.40;99.90
935;DHT22;454;53.254;10.400;2023-05-21T08:03:13;23.30;99.90
935;DHT22;454;53.254;10.400;2023-05-21T08:05:40;22.70;99.90
935;DHT22;454;53.254;10.400;2023-05-21T08:08:07;22.50;99.90
935;DHT22;454;53.254;10.400;2023-05-21T08:10:34;22.20;99.90
935;DHT22;454;53.254;10.400;2023-05-21T08:13:01;22.00;99.90
935;DHT22;454;53.254;10.400;2023-05-21T08:15:28;22.00;99.90
935;DHT22;454;53.254;10.400;2023-05-21T08:17:55;21.70;99.90
935;DHT22;454;53.254;10.400;2023-05-21T08:20:23;21.30;99.90
935;DHT22;454;53.254;10.400;2023-05-21T08:22:50;21.10;99.90
935;DHT22;454;53.254;10.400;2023-05-21T08:25:17;20.80;99.90
935;DHT22;454;53.254;10.400;2023-05-21T08:27:44;20.60;99.90
935;DHT22;454;53.254;10.400;2023-05-21T08:30:11;20.60;99.90
935;DHT22;454;53.254;10.400;2023-05-21T08:32:39;20.60;99.90
935;DHT22;454;53.254;10.400;2023-05-21T08:35:06;20.40;99.90
935;DHT22;454;53.254;10.400;2023-05-21T08:37:34;20.50;99.90
935;DHT22;454;53.254;10.400;2023-05-21T08:40:01;20.50;99.90
935;DHT22;454;53.254;10.400;2023-05-21T08:42:38;20.60;99.90
935;DHT22;454;53.254;10.400;2023-05-21T08:45:07;20.70;99.90
935;DHT22;454;53.254;10.400;2023-05-21T08:47:35;20.70;99.90
935;DHT22;454;53.254;10.400;2023-05-21T08:50:02;20.80;99.90
935;DHT22;454;53.254;10.400;2023-05-21T08:52:30;20.80;99.90
935;DHT22;454;53.254;10.400;2023-05-21T08:54:59;21.00;99.90
935;DHT22;454;53.254;10.400;2023-05-21T08:57:26;21.00;99.90
935;DHT22;454;53.254;10.400;2023-05-21T08:59:53;21.20;99.90
935;DHT22;454;53.254;10.400;2023-05-21T09:02:20;21.30;99.90
935;DHT22;454;53.254;10.400;2023-05-21T09:04:50;21.40;99.90
935;DHT22;454;53.254;10.400;2023-05-21T09:07:21;21.30;99.90
935;DHT22;454;53.254;10.400;2023-05-21T09:09:54;21.40;99.90
935;DHT22;454;53.254;10.400;2023-05-21T09:12:24;21.50;99.90
935;DHT22;454;53.254;10.400;2023-05-21T09:14:51;21.40;99.90
935;DHT22;454;53.254;10.400;2023-05-21T09:17:18;21.50;99.90
935;DHT22;454;53.254;10.400;2023-05-21T09:20:05;21.40;99.90
935;DHT22;454;53.254;10.400;2023-05-21T09:22:35;21.60;99.90
935;DHT22;454;53.254;10.400;2023-05-21T09:25:04;21.50;99.90
935;DHT22;454;53.254;10.400;2023-05-21T09:27:33;21.40;99.90
935;DHT22;454;53.254;10.400;2023-05-21T09:30:01;21.30;99.90
935;DHT22;454;53.254;10.400;2023-05-21T09:32:28;21.50;99.90
935;DHT22;454;53.254;10.400;2023-05-21T09:34:55;21.50;99.90
935;DHT22;454;53.254;10.400;2023-05-21T09:37:21;21.50;99.90
935;DHT22;454;53.254;10.400;2023-05-21T09:39:48;21.60;99.90
935;DHT22;454;53.254;10.400;2023-05-21T09:42:15;21.70;99.90
935;DHT22;454;53.254;10.400;2023-05-21T09:44:47;21.70;99.90
935;DHT22;454;53.254;10.400;2023-05-21T09:47:18;21.70;99.90
935;DHT22;454;53.254;10.400;2023-05-21T09:49:47;21.70;99.90
935;DHT22;454;53.254;10.400;2023-05-21T09:52:22;21.80;99.90
935;DHT22;454;53.254;10.400;2023-05-21T09:54:50;22.00;99.90
935;DHT22;454;53.254;10.400;2023-05-21T09:57:22;22.10;99.90
935;DHT22;454;53.254;10.400;2023-05-21T09:59:51;22.30;99.90
935;DHT22;454;53.254;10.400;2023-05-21T10:02:19;22.20;99.90
935;DHT22;454;53.254;10.400;2023-05-21T10:04:48;22.20;99.90
935;DHT22;454;53.254;10.400;2023-05-21T10:07:18;22.30;99.90
935;DHT22;454;53.254;10.400;2023-05-21T10:09:46;22.60;99.90
935;DHT22;454;53.254;10.400;2023-05-21T10:12:16;22.70;99.90
935;DHT22;454;53.254;10.400;2023-05-21T10:14:46;22.80;99.90
935;DHT22;454;53.254;10.400;2023-05-21T10:17:18;22.90;99.90
935;DHT22;454;53.254;10.400;2023-05-21T10:19:45;23.10;99.90
935;DHT22;454;53.254;10.400;2023-05-21T10:22:13;23.20;99.90
935;DHT22;454;53.254;10.400;2023-05-21T10:24:42;23.40;99.90
935;DHT22;454;53.254;10.400;2023-05-21T10:27:12;23.30;99.90
935;DHT22;454;53.254;10.400;2023-05-21T10:29:40;23.20;99.90
935;DHT22;454;53.254;10.400;2023-05-21T10:32:10;23.30;99.90
935;DHT22;454;53.254;10.400;2023-05-21T10:34:39;23.30;99.90
935;DHT22;454;53.254;10.400;2023-05-21T10:37:07;23.30;99.90
935;DHT22;454;53.254;10.400;2023-05-21T10:39:35;23.40;99.90
935;DHT22;454;53.254;10.400;2023-05-21T10:42:13;23.50;99.90
935;DHT22;454;53.254;10.400;2023-05-21T10:44:59;23.40;99.90
935;DHT22;454;53.254;10.400;2023-05-21T10:47:47;23.40;99.90
935;DHT22;454;53.254;10.400;2023-05-21T10:50:39;23.60;99.90
935;DHT22;454;53.254;10.400;2023-05-21T10:53:15;23.60;99.90
935;DHT22;454;53.254;10.400;2023-05-21T10:56:03;23.70;99.90
935;DHT22;454;53.254;10.400;2023-05-21T11:01:32;24.10;99.90
935;DHT22;454;53.254;10.400;2023-05-21T11:04:00;24.20;99.90
935;DHT22;454;53.254;10.400;2023-05-21T11:06:28;24.10;99.90
935;DHT22;454;53.254;10.400;2023-05-21T11:08:55;24.10;99.90
935;DHT22;454;53.254;10.400;2023-05-21T11:11:42;24.30;99.90
935;DHT22;454;53.254;10.400;2023-05-21T11:14:32;24.20;99.90
935;DHT22;454;53.254;10.400;2023-05-21T11:17:01;24.30;99.90
935;DHT22;454;53.254;10.400;2023-05-21T11:19:35;24.40;99.90
935;DHT22;454;53.254;10.400;2023-05-21T11:22:08;24.50;99.90
935;DHT22;454;53.254;10.400;2023-05-21T11:24:40;24.50;99.90
935;DHT22;454;53.254;10.400;2023-05-21T11:27:07;24.40;99.90
935;DHT22;454;53.254;10.400;2023-05-21T11:29:41;24.50;99.90
935;DHT22;454;53.254;10.400;2023-05-21T11:32:10;24.40;99.90
935;DHT22;454;53.254;10.400;2023-05-21T11:34:44;24.50;99.90
935;DHT22;454;53.254;10.400;2023-05-21T11:37:27;24.70;99.90
935;DHT22;454;53.254;10.400;2023-05-21T11:42:42;24.90;99.90
935;DHT22;454;53.254;10.400;2023-05-21T11:45:16;25.10;99.90
935;DHT22;454;53.254;10.400;2023-05-21T11:47:43;24.90;99.90
935;DHT22;454;53.254;10.400;2023-05-21T11:50:12;24.80;99.90
935;DHT22;454;53.254;10.400;2023-05-21T11:52:40;24.70;99.90
935;DHT22;454;53.254;10.400;2023-05-21T11:55:08;24.70;99.90
935;DHT22;454;53.254;10.400;2023-05-21T11:57:36;24.90;99.90
935;DHT22;454;53.254;10.400;2023-05-21T12:00:04;25.00;99.90
935;DHT22;454;53.254;10.400;2023-05-21T12:02:42;25.20;99.90
935;DHT22;454;53.254;10.400;2023-05-21T12:05:09;25.30;99.90
935;DHT22;454;53.254;10.400;2023-05-21T12:07:36;25.40;99.90
935;DHT22;454;53.254;10.400;2023-05-21T12:10:06;25.60;99.90
935;DHT22;454;53.254;10.400;2023-05-21T12:12:33;25.70;99.90
935;DHT22;454;53.254;10.400;2023-05-21T12:15:01;25.90;99.90
935;DHT22;454;53.254;10.400;2023-05-21T12:17:29;25.90;99.90
935;DHT22;454;53.254;10.400;2023-05-21T12:19:56;25.80;99.90
935;DHT22;454;53.254;10.400;2023-05-21T12:22:23;25.80;99.90
935;DHT22;454;53.254;10.400;2023-05-21T12:24:52;25.80;99.90
935;DHT22;454;53.254;10.400;2023-05-21T12:27:22;25.90;99.90
935;DHT22;454;53.254;10.400;2023-05-21T12:29:50;26.00;99.90
935;DHT22;454;53.254;10.400;2023-05-21T12:32:17;26.10;99.90
935;DHT22;454;53.254;10.400;2023-05-21T12:34:46;26.20;99.90
935;DHT22;454;53.254;10.400;2023-05-21T12:37:16;26.20;99.90
935;DHT22;454;53.254;10.400;2023-05-21T12:39:43;26.30;99.90
935;DHT22;454;53.254;10.400;2023-05-21T12:42:11;26.50;99.90
935;DHT22;454;53.254;10.400;2023-05-21T12:44:42;26.50;99.90
935;DHT22;454;53.254;10.400;2023-05-21T12:47:09;26.70;99.90
935;DHT22;454;53.254;10.400;2023-05-21T12:49:38;26.70;99.90
935;DHT22;454;53.254;10.400;2023-05-21T12:52:08;26.70;99.90
935;DHT22;454;53.254;10.400;2023-05-21T12:54:36;26.80;99.90
935;DHT22;454;53.254;10.400;2023-05-21T12:57:13;26.90;99.90
935;DHT22;454;53.254;10.400;2023-05-21T12:59:49;26.90;99.90
935;DHT22;454;53.254;10.400;2023-05-21T13:02:19;27.00;99.90
935;DHT22;454;53.254;10.400;2023-05-21T13:04:47;27.00;99.90
935;DHT22;454;53.254;10.400;2023-05-21T13:07:15;27.10;99.90
935;DHT22;454;53.254;10.400;2023-05-21T13:09:42;27.10;99.90
935;DHT22;454;53.254;10.400;2023-05-21T13:12:09;26.70;99.90
935;DHT22;454;53.254;10.400;2023-05-21T13:14:36;27.10;99.90
935;DHT22;454;53.254;10.400;2023-05-21T13:17:05;27.20;99.90
935;DHT22;454;53.254;10.400;2023-05-21T13:19:34;27.20;99.90
935;DHT22;454;53.254;10.400;2023-05-21T13:22:02;27.10;99.90
935;DHT22;454;53.254;10.400;2023-05-21T13:24:29;27.10;99.90
935;DHT22;454;53.254;10.400;2023-05-21T13:26:55;27.00;99.90
935;DHT22;454;53.254;10.400;2023-05-21T13:29:22;26.90;99.90
935;DHT22;454;53.254;10.400;2023-05-21T13:31:49;26.90;99.90
935;DHT22;454;53.254;10.400;2023-05-21T13:34:17;27.10;99.90
935;DHT22;454;53.254;10.400;2023-05-21T13:36:45;27.20;99.90
935;DHT22;454;53.254;10.400;2023-05-21T13:39:11;27.30;99.90
935;DHT22;454;53.254;10.400;2023-05-21T13:41:38;27.20;99.90
935;DHT22;454;53.254;10.400;2023-05-21T13:44:05;27.10;99.90
935;DHT22;454;53.254;10.400;2023-05-21T13:46:32;27.10;99.90
935;DHT22;454;53.254;10.400;2023-05-21T13:49:03;27.10;99.90
935;DHT22;454;53.254;10.400;2023-05-21T13:51:32;27.10;99.90
935;DHT22;454;53.254;10.400;2023-05-21T13:53:58;27.10;99.90
935;DHT22;454;53.254;10.400;2023-05-21T13:56:25;27.20;99.90
935;DHT22;454;53.254;10.400;2023-05-21T13:58:52;27.00;99.90
935;DHT22;454;53.254;10.400;2023-05-21T14:01:19;27.00;99.90
935;DHT22;454;53.254;10.400;2023-05-21T14:03:46;27.00;99.90
935;DHT22;454;53.254;10.400;2023-05-21T14:06:12;27.00;99.90
935;DHT22;454;53.254;10.400;2023-05-21T14:08:41;26.90;99.90
935;DHT22;454;53.254;10.400;2023-05-21T14:11:07;26.90;99.90
935;DHT22;454;53.254;10.400;2023-05-21T14:13:34;26.90;99.90
935;DHT22;454;53.254;10.400;2023-05-21T14:16:01;27.10;99.90
935;DHT22;454;53.254;10.400;2023-05-21T14:18:28;27.10;99.90
935;DHT22;454;53.254;10.400;2023-05-21T14:20:54;27.10;99.90
935;DHT22;454;53.254;10.400;2023-05-21T14:23:21;27.10;99.90
935;DHT22;454;53.254;10.400;2023-05-21T14:25:49;27.20;99.90
935;DHT22;454;53.254;10.400;2023-05-21T14:28:16;27.30;99.90
935;DHT22;454;53.254;10.400;2023-05-21T14:30:43;27.30;99.90
935;DHT22;454;53.254;10.400;2023-05-21T14:33:10;27.20;99.90
935;DHT22;454;53.254;10.400;2023-05-21T14:35:37;27.10;99.90
935;DHT22;454;53.254;10.400;2023-05-21T14:38:05;27.10;99.90
935;DHT22;454;53.254;10.400;2023-05-21T14:40:32;27.10;99.90
935;DHT22;454;53.254;10.400;2023-05-21T14:43:01;27.10;99.90
935;DHT22;454;53.254;10.400;2023-05-21T14:45:28;27.30;99.90
935;DHT22;454;53.254;10.400;2023-05-21T14:47:57;27.40;99.90
935;DHT22;454;53.254;10.400;2023-05-21T14:50:24;27.40;99.90
935;DHT22;454;53.254;10.400;2023-05-21T14:52:50;27.40;99.90
935;DHT22;454;53.254;10.400;2023-05-21T14:55:17;27.50;99.90
935;DHT22;454;53.254;10.400;2023-05-21T14:57:46;27.40;99.20
935;DHT22;454;53.254;10.400;2023-05-21T15:00:15;27.40;99.60
935;DHT22;454;53.254;10.400;2023-05-21T15:02:42;27.40;98.80
935;DHT22;454;53.254;10.400;2023-05-21T15:05:09;27.40;97.70
935;DHT22;454;53.254;10.400;2023-05-21T15:07:35;27.40;98.40
935;DHT22;454;53.254;10.400;2023-05-21T15:10:02;27.50;97.40
935;DHT22;454;53.254;10.400;2023-05-21T15:12:29;27.50;97.40
935;DHT22;454;53.254;10.400;2023-05-21T15:14:56;27.60;97.70
935;DHT22;454;53.254;10.400;2023-05-21T15:17:24;27.70;98.20
935;DHT22;454;53.254;10.400;2023-05-21T15:19:51;27.80;97.70
935;DHT22;454;53.254;10.400;2023-05-21T15:22:21;27.90;96.30
935;DHT22;454;53.254;10.400;2023-05-21T15:24:47;27.90;96.50
935;DHT22;454;53.254;10.400;2023-05-21T15:27:14;27.90;96.30
935;DHT22;454;53.254;10.400;2023-05-21T15:29:41;27.80;96.40
935;DHT22;454;53.254;10.400;2023-05-21T15:32:10;27.70;96.30
935;DHT22;454;53.254;10.400;2023-05-21T15:34:38;27.50;96.40
935;DHT22;454;53.254;10.400;2023-05-21T15:37:04;27.40;96.30
935;DHT22;454;53.254;10.400;2023-05-21T15:39:31;27.40;97.10
935;DHT22;454;53.254;10.400;2023-05-21T15:41:58;27.30;96.80
935;DHT22;454;53.254;10.400;2023-05-21T15:44:25;27.20;96.80
935;DHT22;454;53.254;10.400;2023-05-21T15:46:52;27.20;97.00
935;DHT22;454;53.254;10.400;2023-05-21T15:49:19;27.20;97.30
935;DHT22;454;53.254;10.400;2023-05-21T15:51:47;27.10;96.80
935;DHT22;454;53.254;10.400;2023-05-21T15:54:14;27.10;96.90
935;DHT22;454;53.254;10.400;2023-05-21T15:56:42;27.00;97.00
935;DHT22;454;53.254;10.400;2023-05-21T15:59:09;27.00;96.90
935;DHT22;454;53.254;10.400;2023-05-21T16:01:36;27.00;97.30
935;DHT22;454;53.254;10.400;2023-05-21T16:04:04;27.00;97.40
935;DHT22;454;53.254;10.400;2023-05-21T16:06:31;27.00;97.70
935;DHT22;454;53.254;10.400;2023-05-21T16:08:59;27.00;97.90
935;DHT22;454;53.254;10.400;2023-05-21T16:11:26;27.00;97.60
935;DHT22;454;53.254;10.400;2023-05-21T16:13:53;27.00;98.20
935;DHT22;454;53.254;10.400;2023-05-21T16:16:20;27.10;98.70
935;DHT22;454;53.254;10.400;2023-05-21T16:18:47;27.10;98.20
935;DHT22;454;53.254;10.400;2023-05-21T16:21:14;27.00;97.60
935;DHT22;454;53.254;10.400;2023-05-21T16:23:40;27.00;98.10
935;DHT22;454;53.254;10.400;2023-05-21T16:26:09;27.10;98.20
935;DHT22;454;53.254;10.400;2023-05-21T16:28:36;27.10;98.40
935;DHT22;454;53.254;10.400;2023-05-21T16:31:03;27.00;98.40
935;DHT22;454;53.254;10.400;2023-05-21T16:33:30;27.00;98.10
935;DHT22;454;53.254;10.400;2023-05-21T16:35:57;26.90;97.80
935;DHT22;454;53.254;10.400;2023-05-21T16:38:24;26.90;97.70
935;DHT22;454;53.254;10.400;2023-05-21T16:40:51;26.90;98.10
935;DHT22;454;53.254;10.400;2023-05-21T16:43:19;26.80;97.90
935;DHT22;454;53.254;10.400;2023-05-21T16:45:46;26.70;98.10
935;DHT22;454;53.254;10.400;2023-05-21T16:48:13;26.70;98.10
935;DHT22;454;53.254;10.400;2023-05-21T16:50:41;26.60;97.90
935;DHT22;454;53.254;10.400;2023-05-21T16:53:07;26.60;98.10
935;DHT22;454;53.254;10.400;2023-05-21T16:55:36;26.50;98.50
935;DHT22;454;53.254;10.400;2023-05-21T16:58:04;26.50;98.20
935;DHT22;454;53.254;10.400;2023-05-21T17:00:33;26.40;98.40
935;DHT22;454;53.254;10.400;2023-05-21T17:02:59;26.40;98.90
935;DHT22;454;53.254;10.400;2023-05-21T17:05:26;26.30;98.70
935;DHT22;454;53.254;10.400;2023-05-21T17:07:53;26.20;99.10
935;DHT22;454;53.254;10.400;2023-05-21T17:10:21;26.20;99.00
935;DHT22;454;53.254;10.400;2023-05-21T17:12:48;26.20;98.60
935;DHT22;454;53.254;10.400;2023-05-21T17:15:15;26.10;98.50
935;DHT22;454;53.254;10.400;2023-05-21T17:17:43;26.10;98.60
935;DHT22;454;53.254;10.400;2023-05-21T17:20:11;26.10;98.80
935;DHT22;454;53.254;10.400;2023-05-21T17:22:38;26.00;98.80
935;DHT22;454;53.254;10.400;2023-05-21T17:25:05;26.00;99.10
935;DHT22;454;53.254;10.400;2023-05-21T17:27:32;26.00;99.20
935;DHT22;454;53.254;10.400;2023-05-21T17:29:59;25.90;99.30
935;DHT22;454;53.254;10.400;2023-05-21T17:32:27;25.90;99.40
935;DHT22;454;53.254;10.400;2023-05-21T17:34:55;25.80;99.60
935;DHT22;454;53.254;10.400;2023-05-21T17:37:22;25.80;99.90
935;DHT22;454;53.254;10.400;2023-05-21T17:39:49;25.70;99.90
935;DHT22;454;53.254;10.400;2023-05-21T17:42:16;25.70;99.80
935;DHT22;454;53.254;10.400;2023-05-21T17:44:43;25.60;99.90
935;DHT22;454;53.254;10.400;2023-05-21T17:47:09;25.60;99.90
935;DHT22;454;53.254;10.400;2023-05-21T17:49:36;25.60;99.90
935;DHT22;454;53.254;10.400;2023-05-21T17:52:05;25.60;99.90
935;DHT22;454;53.254;10.400;2023-05-21T17:54:32;25.50;99.90
935;DHT22;454;53.254;10.400;2023-05-21T17:56:59;25.40;99.90
935;DHT22;454;53.254;10.400;2023-05-21T17:59:26;25.40;99.90
935;DHT22;454;53.254;10.400;2023-05-21T18:01:52;25.40;99.90
935;DHT22;454;53.254;10.400;2023-05-21T18:04:19;25.30;99.90
935;DHT22;454;53.254;10.400;2023-05-21T18:06:46;25.30;99.90
935;DHT22;454;53.254;10.400;2023-05-21T18:09:14;25.30;99.90
935;DHT22;454;53.254;10.400;2023-05-21T18:11:41;25.20;99.90
935;DHT22;454;53.254;10.400;2023-05-21T18:14:08;25.10;99.90
935;DHT22;454;53.254;10.400;2023-05-21T18:16:35;25.10;99.90
935;DHT22;454;53.254;10.400;2023-05-21T18:19:02;25.00;99.90
935;DHT22;454;53.254;10.400;2023-05-21T18:21:32;24.90;99.90
935;DHT22;454;53.254;10.400;2023-05-21T18:23:59;24.90;99.90
935;DHT22;454;53.254;10.400;2023-05-21T18:26:27;24.80;99.90
935;DHT22;454;53.254;10.400;2023-05-21T18:28:55;24.70;99.90
935;DHT22;454;53.254;10.400;2023-05-21T18:31:22;24.70;99.90
935;DHT22;454;53.254;10.400;2023-05-21T18:33:49;24.60;99.90
935;DHT22;454;53.254;10.400;2023-05-21T18:36:16;24.50;99.90
935;DHT22;454;53.254;10.400;2023-05-21T18:38:43;24.50;99.90
935;DHT22;454;53.254;10.400;2023-05-21T18:41:09;24.40;99.90
935;DHT22;454;53.254;10.400;2023-05-21T18:43:38;24.30;99.90
935;DHT22;454;53.254;10.400;2023-05-21T18:46:05;24.30;99.90
935;DHT22;454;53.254;10.400;2023-05-21T18:48:32;24.20;99.90
935;DHT22;454;53.254;10.400;2023-05-21T18:50:59;24.10;99.90
935;DHT22;454;53.254;10.400;2023-05-21T18:53:26;24.00;99.90
935;DHT22;454;53.254;10.400;2023-05-21T18:55:52;23.90;99.90
935;DHT22;454;53.254;10.400;2023-05-21T18:58:19;23.80;99.90
935;DHT22;454;53.254;10.400;2023-05-21T19:00:47;23.70;99.90
935;DHT22;454;53.254;10.400;2023-05-21T19:03:14;23.60;99.90
935;DHT22;454;53.254;10.400;2023-05-21T19:05:40;23.60;99.90
935;DHT22;454;53.254;10.400;2023-05-21T19:08:07;23.50;99.90
935;DHT22;454;53.254;10.400;2023-05-21T19:10:34;23.40;99.90
935;DHT22;454;53.254;10.400;2023-05-21T19:13:03;23.40;99.90
935;DHT22;454;53.254;10.400;2023-05-21T19:15:30;23.30;99.90
935;DHT22;454;53.254;10.400;2023-05-21T19:17:58;23.20;99.90
935;DHT22;454;53.254;10.400;2023-05-21T19:20:25;23.20;99.90
935;DHT22;454;53.254;10.400;2023-05-21T19:22:52;23.10;99.90
935;DHT22;454;53.254;10.400;2023-05-21T19:25:19;23.00;99.90
935;DHT22;454;53.254;10.400;2023-05-21T19:27:46;23.00;99.90
935;DHT22;454;53.254;10.400;2023-05-21T19:30:13;22.90;99.90
935;DHT22;454;53.254;10.400;2023-05-21T19:32:39;22.90;99.90
935;DHT22;454;53.254;10.400;2023-05-21T19:35:08;22.80;99.90
935;DHT22;454;53.254;10.400;2023-05-21T19:37:35;22.80;99.90
935;DHT22;454;53.254;10.400;2023-05-21T19:40:02;22.70;99.90
935;DHT22;454;53.254;10.400;2023-05-21T19:42:30;22.70;99.90
935;DHT22;454;53.254;10.400;2023-05-21T19:44:57;22.60;99.90
935;DHT22;454;53.254;10.400;2023-05-21T19:47:24;22.60;99.90
935;DHT22;454;53.254;10.400;2023-05-21T19:49:51;22.50;99.90
935;DHT22;454;53.254;10.400;2023-05-21T19:52:19;22.50;99.90
935;DHT22;454;53.254;10.400;2023-05-21T19:54:46;22.40;99.90
935;DHT22;454;53.254;10.400;2023-05-21T19:57:13;22.40;99.90
935;DHT22;454;53.254;10.400;2023-05-21T19:59:39;22.40;99.90
935;DHT22;454;53.254;10.400;2023-05-21T20:02:10;22.40;99.90
935;DHT22;454;53.254;10.400;2023-05-21T20:04:39;22.30;99.90
935;DHT22;454;53.254;10.400;2023-05-21T20:07:06;22.30;99.90
935;DHT22;454;53.254;10.400;2023-05-21T20:09:34;22.20;99.90
935;DHT22;454;53.254;10.400;2023-05-21T20:12:00;22.10;99.90
935;DHT22;454;53.254;10.400;2023-05-21T20:14:27;22.20;99.90
935;DHT22;454;53.254;10.400;2023-05-21T20:16:57;22.10;99.90
935;DHT22;454;53.254;10.400;2023-05-21T20:19:24;22.10;99.90
935;DHT22;454;53.254;10.400;2023-05-21T20:21:51;22.10;99.90
935;DHT22;454;53.254;10.400;2023-05-21T20:24:17;22.00;99.90
935;DHT22;454;53.254;10.400;2023-05-21T20:26:46;22.00;99.90
935;DHT22;454;53.254;10.400;2023-05-21T20:29:12;21.90;99.90